sensor_id;sensor_type;location;lat;lon;timestamp;P1;durP1;ratioP1;P2;durP2;ratioP2
6955;SDS011;50345;51.136;16.886;2023-03-01T00:02:05;103.20;;;58.87;;
6955;SDS011;50345;51.136;16.886;2023-03-01T00:04:31;105.25;;;60.80;;
6955;SDS011;50345;51.136;16.886;2023-03-01T00:06:57;97.10;;;59.30;;
6955;SDS011;50345;51.136;16.886;2023-03-01T00:09:23;101.77;;;59.87;;
6955;SDS011;50345;51.136;16.886;2023-03-01T00:11:48;105.50;;;56.07;;
6955;SDS011;50345;51.136;16.886;2023-03-01T00:14:14;107.07;;;57.93;;
6955;SDS011;50345;51.136;16.886;2023-03-01T00:16:42;101.18;;;55.25;;
6955;SDS011;50345;51.136;16.886;2023-03-01T00:19:13;91.10;;;53.85;;
6955;SDS011;50345;51.136;16.886;2023-03-01T00:21:40;87.75;;;53.92;;
6955;SDS011;50345;51.136;16.886;2023-03-01T00:24:05;84.70;;;51.47;;
6955;SDS011;50345;51.136;16.886;2023-03-01T00:26:31;97.30;;;55.43;;
6955;SDS011;50345;51.136;16.886;2023-03-01T00:28:57;87.17;;;51.90;;
6955;SDS011;50345;51.136;16.886;2023-03-01T00:31:24;85.28;;;52.20;;
6955;SDS011;50345;51.136;16.886;2023-03-01T00:33:53;79.18;;;50.38;;
6955;SDS011;50345;51.136;16.886;2023-03-01T00:36:22;78.05;;;49.90;;
6955;SDS011;50345;51.136;16.886;2023-03-01T00:38:50;80.88;;;50.15;;
6955;SDS011;50345;51.136;16.886;2023-03-01T00:41:16;75.20;;;47.73;;
6955;SDS011;50345;51.136;16.886;2023-03-01T00:43:44;79.07;;;46.15;;
6955;SDS011;50345;51.136;16.886;2023-03-01T00:46:14;90.68;;;52.17;;
6955;SDS011;50345;51.136;16.886;2023-03-01T00:48:44;69.28;;;43.08;;
6955;SDS011;50345;51.136;16.886;2023-03-01T00:51:11;70.47;;;44.17;;
6955;SDS011;50345;51.136;16.886;2023-03-01T00:53:39;66.35;;;43.47;;
6955;SDS011;50345;51.136;16.886;2023-03-01T00:56:06;63.97;;;39.92;;
6955;SDS011;50345;51.136;16.886;2023-03-01T00:58:33;73.75;;;43.92;;
6955;SDS011;50345;51.136;16.886;2023-03-01T01:01:00;66.50;;;44.58;;
6955;SDS011;50345;51.136;16.886;2023-03-01T01:03:25;68.27;;;41.50;;
6955;SDS011;50345;51.136;16.886;2023-03-01T01:05:51;78.70;;;47.40;;
6955;SDS011;50345;51.136;16.886;2023-03-01T01:08:18;93.28;;;53.35;;
6955;SDS011;50345;51.136;16.886;2023-03-01T01:10:44;80.68;;;48.15;;
6955;SDS011;50345;51.136;16.886;2023-03-01T01:13:11;75.10;;;45.65;;
6955;SDS011;50345;51.136;16.886;2023-03-01T01:15:38;74.68;;;46.97;;
6955;SDS011;50345;51.136;16.886;2023-03-01T01:18:04;70.80;;;43.83;;
6955;SDS011;50345;51.136;16.886;2023-03-01T01:20:30;68.93;;;43.78;;
6955;SDS011;50345;51.136;16.886;2023-03-01T01:22:55;68.67;;;44.40;;
6955;SDS011;50345;51.136;16.886;2023-03-01T01:25:21;72.93;;;46.47;;
6955;SDS011;50345;51.136;16.886;2023-03-01T01:27:49;84.68;;;47.80;;
6955;SDS011;50345;51.136;16.886;2023-03-01T01:30:15;76.13;;;50.08;;
6955;SDS011;50345;51.136;16.886;2023-03-01T01:32:41;80.43;;;50.07;;
6955;SDS011;50345;51.136;16.886;2023-03-01T01:35:07;81.53;;;48.97;;
6955;SDS011;50345;51.136;16.886;2023-03-01T01:37:32;70.47;;;45.23;;
6955;SDS011;50345;51.136;16.886;2023-03-01T01:39:58;66.63;;;43.90;;
6955;SDS011;50345;51.136;16.886;2023-03-01T01:42:25;67.82;;;45.10;;
6955;SDS011;50345;51.136;16.886;2023-03-01T01:47:52;73.75;;;44.58;;
6955;SDS011;50345;51.136;16.886;2023-03-01T01:50:22;72.10;;;44.83;;
6955;SDS011;50345;51.136;16.886;2023-03-01T01:52:48;64.05;;;42.40;;
6955;SDS011;50345;51.136;16.886;2023-03-01T01:55:21;77.95;;;44.50;;
6955;SDS011;50345;51.136;16.886;2023-03-01T01:57:54;61.72;;;40.85;;
6955;SDS011;50345;51.136;16.886;2023-03-01T02:00:25;69.63;;;43.17;;
6955;SDS011;50345;51.136;16.886;2023-03-01T02:03:03;59.13;;;39.90;;
6955;SDS011;50345;51.136;16.886;2023-03-01T02:08:33;64.80;;;40.60;;
6955;SDS011;50345;51.136;16.886;2023-03-01T02:11:02;65.55;;;42.13;;
6955;SDS011;50345;51.136;16.886;2023-03-01T02:13:31;63.30;;;40.53;;
6955;SDS011;50345;51.136;16.886;2023-03-01T02:18:29;56.42;;;35.97;;
6955;SDS011;50345;51.136;16.886;2023-03-01T02:23:53;57.78;;;40.08;;
6955;SDS011;50345;51.136;16.886;2023-03-01T02:26:22;69.90;;;42.60;;
6955;SDS011;50345;51.136;16.886;2023-03-01T02:28:58;61.58;;;40.50;;
6955;SDS011;50345;51.136;16.886;2023-03-01T02:31:24;63.90;;;41.13;;
6955;SDS011;50345;51.136;16.886;2023-03-01T02:34:08;68.18;;;41.45;;
6955;SDS011;50345;51.136;16.886;2023-03-01T02:36:41;78.25;;;44.42;;
6955;SDS011;50345;51.136;16.886;2023-03-01T02:39:14;69.65;;;41.63;;
6955;SDS011;50345;51.136;16.886;2023-03-01T02:41:42;66.68;;;41.33;;
6955;SDS011;50345;51.136;16.886;2023-03-01T02:44:11;58.28;;;38.58;;
6955;SDS011;50345;51.136;16.886;2023-03-01T02:47:10;60.43;;;39.73;;
6955;SDS011;50345;51.136;16.886;2023-03-01T02:49:31;65.68;;;37.15;;
6955;SDS011;50345;51.136;16.886;2023-03-01T02:57:46;64.93;;;40.25;;
6955;SDS011;50345;51.136;16.886;2023-03-01T03:00:20;66.68;;;41.25;;
6955;SDS011;50345;51.136;16.886;2023-03-01T03:02:50;64.57;;;40.50;;
6955;SDS011;50345;51.136;16.886;2023-03-01T03:05:18;73.05;;;43.03;;
6955;SDS011;50345;51.136;16.886;2023-03-01T03:07:49;62.33;;;37.38;;
6955;SDS011;50345;51.136;16.886;2023-03-01T03:12:51;64.28;;;40.95;;
6955;SDS011;50345;51.136;16.886;2023-03-01T03:15:19;64.93;;;40.65;;
6955;SDS011;50345;51.136;16.886;2023-03-01T03:17:45;61.70;;;41.13;;
6955;SDS011;50345;51.136;16.886;2023-03-01T03:20:12;62.27;;;38.23;;
6955;SDS011;50345;51.136;16.886;2023-03-01T03:22:43;59.72;;;39.50;;
6955;SDS011;50345;51.136;16.886;2023-03-01T03:25:10;65.82;;;40.17;;
6955;SDS011;50345;51.136;16.886;2023-03-01T03:27:40;61.83;;;38.87;;
6955;SDS011;50345;51.136;16.886;2023-03-01T03:30:08;65.30;;;41.38;;
6955;SDS011;50345;51.136;16.886;2023-03-01T03:32:37;65.38;;;39.85;;
6955;SDS011;50345;51.136;16.886;2023-03-01T03:35:04;65.47;;;41.90;;
6955;SDS011;50345;51.136;16.886;2023-03-01T03:37:35;65.80;;;41.78;;
6955;SDS011;50345;51.136;16.886;2023-03-01T03:40:21;72.10;;;41.58;;
6955;SDS011;50345;51.136;16.886;2023-03-01T03:42:46;69.40;;;41.17;;
6955;SDS011;50345;51.136;16.886;2023-03-01T03:45:13;71.63;;;41.78;;
6955;SDS011;50345;51.136;16.886;2023-03-01T03:47:38;68.73;;;41.77;;
6955;SDS011;50345;51.136;16.886;2023-03-01T03:50:04;66.63;;;40.17;;
6955;SDS011;50345;51.136;16.886;2023-03-01T03:52:30;67.30;;;42.00;;
6955;SDS011;50345;51.136;16.886;2023-03-01T03:54:55;62.77;;;40.57;;
6955;SDS011;50345;51.136;16.886;2023-03-01T03:57:21;68.03;;;39.57;;
6955;SDS011;50345;51.136;16.886;2023-03-01T03:59:46;65.37;;;40.57;;
6955;SDS011;50345;51.136;16.886;2023-03-01T04:02:12;62.10;;;41.40;;
6955;SDS011;50345;51.136;16.886;2023-03-01T04:04:37;62.80;;;41.17;;
6955;SDS011;50345;51.136;16.886;2023-03-01T04:07:03;60.20;;;39.67;;
6955;SDS011;50345;51.136;16.886;2023-03-01T04:09:29;63.80;;;39.37;;
6955;SDS011;50345;51.136;16.886;2023-03-01T04:11:55;61.42;;;41.42;;
6955;SDS011;50345;51.136;16.886;2023-03-01T04:14:20;71.10;;;45.50;;
6955;SDS011;50345;51.136;16.886;2023-03-01T04:16:46;68.93;;;42.83;;
6955;SDS011;50345;51.136;16.886;2023-03-01T04:19:12;69.70;;;41.30;;
6955;SDS011;50345;51.136;16.886;2023-03-01T04:21:37;63.13;;;39.93;;
6955;SDS011;50345;51.136;16.886;2023-03-01T04:24:03;66.47;;;40.40;;
6955;SDS011;50345;51.136;16.886;2023-03-01T04:26:29;70.07;;;42.13;;
6955;SDS011;50345;51.136;16.886;2023-03-01T04:28:55;60.00;;;38.70;;
6955;SDS011;50345;51.136;16.886;2023-03-01T04:31:20;63.57;;;39.30;;
6955;SDS011;50345;51.136;16.886;2023-03-01T04:33:50;67.17;;;39.90;;
6955;SDS011;50345;51.136;16.886;2023-03-01T04:36:17;61.88;;;39.72;;
6955;SDS011;50345;51.136;16.886;2023-03-01T04:38:44;65.53;;;40.40;;
6955;SDS011;50345;51.136;16.886;2023-03-01T04:41:12;59.85;;;38.30;;
6955;SDS011;50345;51.136;16.886;2023-03-01T04:43:38;59.72;;;36.90;;
6955;SDS011;50345;51.136;16.886;2023-03-01T04:46:05;63.43;;;40.00;;
6955;SDS011;50345;51.136;16.886;2023-03-01T04:48:34;59.13;;;37.45;;
6955;SDS011;50345;51.136;16.886;2023-03-01T04:51:00;60.50;;;36.65;;
6955;SDS011;50345;51.136;16.886;2023-03-01T04:53:26;56.97;;;40.85;;
6955;SDS011;50345;51.136;16.886;2023-03-01T04:55:53;58.95;;;40.45;;
6955;SDS011;50345;51.136;16.886;2023-03-01T04:58:20;82.22;;;46.47;;
6955;SDS011;50345;51.136;16.886;2023-03-01T05:00:47;72.10;;;42.88;;
6955;SDS011;50345;51.136;16.886;2023-03-01T05:03:13;73.67;;;45.50;;
6955;SDS011;50345;51.136;16.886;2023-03-01T05:05:42;65.60;;;41.25;;
6955;SDS011;50345;51.136;16.886;2023-03-01T05:08:09;75.80;;;45.42;;
6955;SDS011;50345;51.136;16.886;2023-03-01T05:10:42;79.75;;;48.03;;
6955;SDS011;50345;51.136;16.886;2023-03-01T05:13:12;80.50;;;48.75;;
6955;SDS011;50345;51.136;16.886;2023-03-01T05:15:45;81.50;;;49.47;;
6955;SDS011;50345;51.136;16.886;2023-03-01T05:18:12;78.55;;;45.50;;
6955;SDS011;50345;51.136;16.886;2023-03-01T05:20:37;79.20;;;46.37;;
6955;SDS011;50345;51.136;16.886;2023-03-01T05:23:03;69.90;;;48.10;;
6955;SDS011;50345;51.136;16.886;2023-03-01T05:25:30;71.38;;;45.10;;
6955;SDS011;50345;51.136;16.886;2023-03-01T05:27:58;70.80;;;44.22;;
6955;SDS011;50345;51.136;16.886;2023-03-01T05:30:28;78.72;;;50.70;;
6955;SDS011;50345;51.136;16.886;2023-03-01T05:32:53;82.90;;;47.70;;
6955;SDS011;50345;51.136;16.886;2023-03-01T05:35:20;75.93;;;49.42;;
6955;SDS011;50345;51.136;16.886;2023-03-01T05:37:47;79.93;;;51.95;;
6955;SDS011;50345;51.136;16.886;2023-03-01T05:40:15;78.28;;;48.92;;
6955;SDS011;50345;51.136;16.886;2023-03-01T05:42:43;87.32;;;50.88;;
6955;SDS011;50345;51.136;16.886;2023-03-01T05:45:17;78.28;;;49.28;;
6955;SDS011;50345;51.136;16.886;2023-03-01T05:47:43;82.80;;;52.55;;
6955;SDS011;50345;51.136;16.886;2023-03-01T05:50:12;75.53;;;48.40;;
6955;SDS011;50345;51.136;16.886;2023-03-01T05:52:39;79.45;;;50.08;;
6955;SDS011;50345;51.136;16.886;2023-03-01T05:55:05;77.43;;;48.97;;
6955;SDS011;50345;51.136;16.886;2023-03-01T05:57:31;74.25;;;45.75;;
6955;SDS011;50345;51.136;16.886;2023-03-01T05:59:56;82.13;;;49.00;;
6955;SDS011;50345;51.136;16.886;2023-03-01T06:02:22;92.17;;;45.77;;
6955;SDS011;50345;51.136;16.886;2023-03-01T06:04:48;74.33;;;46.13;;
6955;SDS011;50345;51.136;16.886;2023-03-01T06:07:13;76.90;;;45.87;;
6955;SDS011;50345;51.136;16.886;2023-03-01T06:09:39;75.20;;;46.07;;
6955;SDS011;50345;51.136;16.886;2023-03-01T06:12:04;79.17;;;45.97;;
6955;SDS011;50345;51.136;16.886;2023-03-01T06:14:30;77.93;;;47.30;;
6955;SDS011;50345;51.136;16.886;2023-03-01T06:16:56;79.37;;;48.00;;
6955;SDS011;50345;51.136;16.886;2023-03-01T06:19:22;82.60;;;47.03;;
6955;SDS011;50345;51.136;16.886;2023-03-01T06:21:47;72.97;;;46.43;;
6955;SDS011;50345;51.136;16.886;2023-03-01T06:24:13;76.00;;;49.50;;
6955;SDS011;50345;51.136;16.886;2023-03-01T06:26:38;91.57;;;50.00;;
6955;SDS011;50345;51.136;16.886;2023-03-01T06:29:04;86.40;;;49.27;;
6955;SDS011;50345;51.136;16.886;2023-03-01T06:31:29;92.93;;;50.50;;
6955;SDS011;50345;51.136;16.886;2023-03-01T06:33:55;88.67;;;49.03;;
6955;SDS011;50345;51.136;16.886;2023-03-01T06:36:20;83.30;;;50.17;;
6955;SDS011;50345;51.136;16.886;2023-03-01T06:38:46;85.93;;;51.70;;
6955;SDS011;50345;51.136;16.886;2023-03-01T06:41:12;78.20;;;46.23;;
6955;SDS011;50345;51.136;16.886;2023-03-01T06:43:37;61.80;;;40.80;;
6955;SDS011;50345;51.136;16.886;2023-03-01T06:46:04;65.90;;;40.60;;
6955;SDS011;50345;51.136;16.886;2023-03-01T06:48:31;67.80;;;42.95;;
6955;SDS011;50345;51.136;16.886;2023-03-01T06:50:58;74.10;;;47.60;;
6955;SDS011;50345;51.136;16.886;2023-03-01T06:53:25;72.50;;;47.53;;
6955;SDS011;50345;51.136;16.886;2023-03-01T06:55:55;70.25;;;46.80;;
6955;SDS011;50345;51.136;16.886;2023-03-01T06:58:22;63.35;;;43.00;;
6955;SDS011;50345;51.136;16.886;2023-03-01T07:00:47;71.03;;;43.07;;
6955;SDS011;50345;51.136;16.886;2023-03-01T07:03:13;75.30;;;43.73;;
6955;SDS011;50345;51.136;16.886;2023-03-01T07:05:39;71.57;;;46.27;;
6955;SDS011;50345;51.136;16.886;2023-03-01T07:08:04;89.97;;;51.90;;
6955;SDS011;50345;51.136;16.886;2023-03-01T07:10:30;92.00;;;55.17;;
6955;SDS011;50345;51.136;16.886;2023-03-01T07:12:56;81.07;;;53.37;;
6955;SDS011;50345;51.136;16.886;2023-03-01T07:15:22;94.28;;;60.20;;
6955;SDS011;50345;51.136;16.886;2023-03-01T07:17:48;90.20;;;54.10;;
6955;SDS011;50345;51.136;16.886;2023-03-01T07:20:15;90.97;;;56.22;;
6955;SDS011;50345;51.136;16.886;2023-03-01T07:22:42;96.85;;;57.33;;
6955;SDS011;50345;51.136;16.886;2023-03-01T07:25:08;94.37;;;56.33;;
6955;SDS011;50345;51.136;16.886;2023-03-01T07:27:35;89.30;;;58.67;;
6955;SDS011;50345;51.136;16.886;2023-03-01T07:30:01;84.93;;;55.07;;
6955;SDS011;50345;51.136;16.886;2023-03-01T07:32:27;98.47;;;61.50;;
6955;SDS011;50345;51.136;16.886;2023-03-01T07:34:52;95.73;;;59.80;;
6955;SDS011;50345;51.136;16.886;2023-03-01T07:37:18;89.67;;;56.77;;
6955;SDS011;50345;51.136;16.886;2023-03-01T07:39:44;84.27;;;54.50;;
6955;SDS011;50345;51.136;16.886;2023-03-01T07:42:09;95.83;;;56.50;;
6955;SDS011;50345;51.136;16.886;2023-03-01T07:44:35;87.90;;;54.23;;
6955;SDS011;50345;51.136;16.886;2023-03-01T07:47:00;82.67;;;53.37;;
6955;SDS011;50345;51.136;16.886;2023-03-01T07:49:26;84.97;;;53.10;;
6955;SDS011;50345;51.136;16.886;2023-03-01T07:51:52;87.20;;;52.00;;
6955;SDS011;50345;51.136;16.886;2023-03-01T07:54:18;91.95;;;55.60;;
6955;SDS011;50345;51.136;16.886;2023-03-01T07:56:43;77.00;;;50.90;;
6955;SDS011;50345;51.136;16.886;2023-03-01T07:59:09;71.30;;;47.53;;
6955;SDS011;50345;51.136;16.886;2023-03-01T08:01:35;63.17;;;45.13;;
6955;SDS011;50345;51.136;16.886;2023-03-01T08:04:00;65.87;;;46.77;;
6955;SDS011;50345;51.136;16.886;2023-03-01T08:06:26;61.47;;;44.28;;
6955;SDS011;50345;51.136;16.886;2023-03-01T08:08:52;59.07;;;40.07;;
6955;SDS011;50345;51.136;16.886;2023-03-01T08:11:20;58.97;;;40.17;;
6955;SDS011;50345;51.136;16.886;2023-03-01T08:13:47;65.30;;;41.80;;
6955;SDS011;50345;51.136;16.886;2023-03-01T08:16:13;57.53;;;39.42;;
6955;SDS011;50345;51.136;16.886;2023-03-01T08:18:40;54.63;;;39.28;;
6955;SDS011;50345;51.136;16.886;2023-03-01T08:21:06;57.30;;;39.67;;
6955;SDS011;50345;51.136;16.886;2023-03-01T08:23:36;53.85;;;39.42;;
6955;SDS011;50345;51.136;16.886;2023-03-01T08:26:03;64.13;;;39.92;;
6955;SDS011;50345;51.136;16.886;2023-03-01T08:28:31;48.08;;;38.65;;
6955;SDS011;50345;51.136;16.886;2023-03-01T08:30:57;61.28;;;40.63;;
6955;SDS011;50345;51.136;16.886;2023-03-01T08:33:22;54.00;;;36.10;;
6955;SDS011;50345;51.136;16.886;2023-03-01T08:35:48;47.27;;;35.50;;
6955;SDS011;50345;51.136;16.886;2023-03-01T08:38:14;47.17;;;34.00;;
6955;SDS011;50345;51.136;16.886;2023-03-01T08:40:39;50.07;;;36.80;;
6955;SDS011;50345;51.136;16.886;2023-03-01T08:43:05;59.57;;;37.33;;
6955;SDS011;50345;51.136;16.886;2023-03-01T08:45:30;53.07;;;37.77;;
6955;SDS011;50345;51.136;16.886;2023-03-01T08:47:56;54.43;;;38.97;;
6955;SDS011;50345;51.136;16.886;2023-03-01T08:50:21;45.13;;;33.90;;
6955;SDS011;50345;51.136;16.886;2023-03-01T08:52:49;47.00;;;32.38;;
6955;SDS011;50345;51.136;16.886;2023-03-01T08:55:15;39.47;;;29.70;;
6955;SDS011;50345;51.136;16.886;2023-03-01T08:57:42;51.15;;;34.40;;
6955;SDS011;50345;51.136;16.886;2023-03-01T09:00:08;47.03;;;33.63;;
6955;SDS011;50345;51.136;16.886;2023-03-01T09:02:36;40.58;;;29.98;;
6955;SDS011;50345;51.136;16.886;2023-03-01T09:05:02;46.87;;;32.50;;
6955;SDS011;50345;51.136;16.886;2023-03-01T09:07:27;26.53;;;21.20;;
6955;SDS011;50345;51.136;16.886;2023-03-01T09:09:53;25.53;;;18.13;;
6955;SDS011;50345;51.136;16.886;2023-03-01T09:12:20;24.77;;;19.08;;
6955;SDS011;50345;51.136;16.886;2023-03-01T09:14:45;33.37;;;23.13;;
6955;SDS011;50345;51.136;16.886;2023-03-01T09:17:11;36.53;;;27.37;;
6955;SDS011;50345;51.136;16.886;2023-03-01T09:19:36;36.67;;;27.83;;
6955;SDS011;50345;51.136;16.886;2023-03-01T09:22:03;33.50;;;27.90;;
6955;SDS011;50345;51.136;16.886;2023-03-01T09:24:29;30.63;;;27.38;;
6955;SDS011;50345;51.136;16.886;2023-03-01T09:26:55;31.43;;;25.93;;
6955;SDS011;50345;51.136;16.886;2023-03-01T09:29:22;36.53;;;27.75;;
6955;SDS011;50345;51.136;16.886;2023-03-01T09:31:48;39.90;;;28.60;;
6955;SDS011;50345;51.136;16.886;2023-03-01T09:34:13;40.67;;;30.77;;
6955;SDS011;50345;51.136;16.886;2023-03-01T09:36:41;36.53;;;29.75;;
6955;SDS011;50345;51.136;16.886;2023-03-01T09:39:06;32.50;;;28.83;;
6955;SDS011;50345;51.136;16.886;2023-03-01T09:44:42;25.50;;;22.83;;
6955;SDS011;50345;51.136;16.886;2023-03-01T09:47:29;27.67;;;24.88;;
6955;SDS011;50345;51.136;16.886;2023-03-01T09:52:40;30.40;;;26.02;;
6955;SDS011;50345;51.136;16.886;2023-03-01T09:55:14;30.52;;;27.50;;
6955;SDS011;50345;51.136;16.886;2023-03-01T09:57:48;28.27;;;25.60;;
6955;SDS011;50345;51.136;16.886;2023-03-01T10:00:20;32.80;;;29.50;;
6955;SDS011;50345;51.136;16.886;2023-03-01T10:03:00;31.17;;;28.08;;
6955;SDS011;50345;51.136;16.886;2023-03-01T10:05:55;28.65;;;25.77;;
6955;SDS011;50345;51.136;16.886;2023-03-01T10:08:42;26.80;;;24.20;;
6955;SDS011;50345;51.136;16.886;2023-03-01T10:12:12;28.73;;;25.83;;
6955;SDS011;50345;51.136;16.886;2023-03-01T10:14:17;28.40;;;25.73;;
6955;SDS011;50345;51.136;16.886;2023-03-01T10:19:49;28.63;;;25.80;;
6955;SDS011;50345;51.136;16.886;2023-03-01T10:22:21;27.53;;;24.63;;
6955;SDS011;50345;51.136;16.886;2023-03-01T10:24:53;27.70;;;24.93;;
6955;SDS011;50345;51.136;16.886;2023-03-01T10:27:24;27.80;;;25.20;;
6955;SDS011;50345;51.136;16.886;2023-03-01T10:30:12;27.60;;;24.87;;
6955;SDS011;50345;51.136;16.886;2023-03-01T10:32:45;30.63;;;27.73;;
6955;SDS011;50345;51.136;16.886;2023-03-01T10:35:21;29.67;;;26.50;;
6955;SDS011;50345;51.136;16.886;2023-03-01T10:37:58;30.27;;;27.00;;
6955;SDS011;50345;51.136;16.886;2023-03-01T10:40:23;33.43;;;30.43;;
6955;SDS011;50345;51.136;16.886;2023-03-01T10:42:49;32.70;;;29.60;;
6955;SDS011;50345;51.136;16.886;2023-03-01T10:48:04;32.20;;;28.77;;
6955;SDS011;50345;51.136;16.886;2023-03-01T10:50:35;31.37;;;28.33;;
6955;SDS011;50345;51.136;16.886;2023-03-01T10:53:03;31.33;;;28.43;;
6955;SDS011;50345;51.136;16.886;2023-03-01T10:55:39;30.97;;;27.87;;
6955;SDS011;50345;51.136;16.886;2023-03-01T10:58:06;29.97;;;26.97;;
6955;SDS011;50345;51.136;16.886;2023-03-01T11:03:14;28.23;;;25.83;;
6955;SDS011;50345;51.136;16.886;2023-03-01T11:06:01;30.70;;;27.70;;
6955;SDS011;50345;51.136;16.886;2023-03-01T11:08:46;30.40;;;27.30;;
6955;SDS011;50345;51.136;16.886;2023-03-01T11:13:47;25.93;;;23.63;;
6955;SDS011;50345;51.136;16.886;2023-03-01T11:16:14;26.73;;;24.20;;
6955;SDS011;50345;51.136;16.886;2023-03-01T11:18:59;28.00;;;25.30;;
6955;SDS011;50345;51.136;16.886;2023-03-01T11:24:17;24.13;;;21.83;;
6955;SDS011;50345;51.136;16.886;2023-03-01T11:26:47;25.13;;;22.83;;
6955;SDS011;50345;51.136;16.886;2023-03-01T11:29:37;25.73;;;23.27;;
6955;SDS011;50345;51.136;16.886;2023-03-01T11:32:07;24.50;;;22.20;;
6955;SDS011;50345;51.136;16.886;2023-03-01T11:34:54;24.80;;;22.20;;
6955;SDS011;50345;51.136;16.886;2023-03-01T11:37:32;22.93;;;20.83;;
6955;SDS011;50345;51.136;16.886;2023-03-01T11:40:21;24.53;;;22.30;;
6955;SDS011;50345;51.136;16.886;2023-03-01T11:43:00;23.03;;;20.93;;
6955;SDS011;50345;51.136;16.886;2023-03-01T11:45:35;23.03;;;20.87;;
6955;SDS011;50345;51.136;16.886;2023-03-01T11:48:34;21.17;;;19.13;;
6955;SDS011;50345;51.136;16.886;2023-03-01T11:51:18;22.33;;;20.20;;
6955;SDS011;50345;51.136;16.886;2023-03-01T11:56:31;21.30;;;19.30;;
6955;SDS011;50345;51.136;16.886;2023-03-01T11:59:21;22.40;;;20.43;;
6955;SDS011;50345;51.136;16.886;2023-03-01T12:10:29;24.57;;;22.27;;
6955;SDS011;50345;51.136;16.886;2023-03-01T12:13:35;21.30;;;19.50;;
6955;SDS011;50345;51.136;16.886;2023-03-01T12:19:01;21.33;;;19.10;;
6955;SDS011;50345;51.136;16.886;2023-03-01T12:27:10;20.27;;;18.47;;
6955;SDS011;50345;51.136;16.886;2023-03-01T12:32:56;18.70;;;17.10;;
6955;SDS011;50345;51.136;16.886;2023-03-01T12:36:06;19.47;;;17.60;;
6955;SDS011;50345;51.136;16.886;2023-03-01T12:42:01;19.60;;;17.80;;
6955;SDS011;50345;51.136;16.886;2023-03-01T12:50:26;19.30;;;17.50;;
6955;SDS011;50345;51.136;16.886;2023-03-01T12:53:05;17.90;;;16.23;;
6955;SDS011;50345;51.136;16.886;2023-03-01T12:55:42;17.80;;;16.10;;
6955;SDS011;50345;51.136;16.886;2023-03-01T13:01:31;15.90;;;14.53;;
6955;SDS011;50345;51.136;16.886;2023-03-01T13:17:52;10.90;;;10.00;;
6955;SDS011;50345;51.136;16.886;2023-03-01T13:25:27;11.93;;;10.73;;
6955;SDS011;50345;51.136;16.886;2023-03-01T13:27:52;10.53;;;9.63;;
6955;SDS011;50345;51.136;16.886;2023-03-01T13:30:56;11.90;;;10.80;;
6955;SDS011;50345;51.136;16.886;2023-03-01T13:35:59;14.13;;;12.73;;
6955;SDS011;50345;51.136;16.886;2023-03-01T13:41:15;11.27;;;10.43;;
6955;SDS011;50345;51.136;16.886;2023-03-01T13:44:01;10.93;;;9.93;;
6955;SDS011;50345;51.136;16.886;2023-03-01T13:46:36;12.53;;;11.53;;
6955;SDS011;50345;51.136;16.886;2023-03-01T13:49:03;15.33;;;13.63;;
6955;SDS011;50345;51.136;16.886;2023-03-01T13:51:28;14.40;;;13.10;;
6955;SDS011;50345;51.136;16.886;2023-03-01T13:53:55;12.87;;;11.77;;
6955;SDS011;50345;51.136;16.886;2023-03-01T13:56:27;20.60;;;18.40;;
6955;SDS011;50345;51.136;16.886;2023-03-01T13:58:57;23.63;;;21.33;;
6955;SDS011;50345;51.136;16.886;2023-03-01T14:03:53;11.90;;;10.73;;
6955;SDS011;50345;51.136;16.886;2023-03-01T14:06:24;13.57;;;12.37;;
6955;SDS011;50345;51.136;16.886;2023-03-01T14:09:00;15.33;;;13.90;;
6955;SDS011;50345;51.136;16.886;2023-03-01T14:14:26;18.77;;;16.97;;
6955;SDS011;50345;51.136;16.886;2023-03-01T14:20:19;15.10;;;13.77;;
6955;SDS011;50345;51.136;16.886;2023-03-01T14:22:47;13.90;;;12.60;;
6955;SDS011;50345;51.136;16.886;2023-03-01T14:27:57;13.77;;;12.57;;
6955;SDS011;50345;51.136;16.886;2023-03-01T14:30:24;13.97;;;12.70;;
6955;SDS011;50345;51.136;16.886;2023-03-01T14:35:59;14.90;;;13.50;;
6955;SDS011;50345;51.136;16.886;2023-03-01T14:40:57;13.67;;;12.37;;
6955;SDS011;50345;51.136;16.886;2023-03-01T14:43:26;18.67;;;16.63;;
6955;SDS011;50345;51.136;16.886;2023-03-01T14:45:53;15.93;;;14.30;;
6955;SDS011;50345;51.136;16.886;2023-03-01T14:48:19;13.20;;;12.13;;
6955;SDS011;50345;51.136;16.886;2023-03-01T14:50:45;14.77;;;13.37;;
6955;SDS011;50345;51.136;16.886;2023-03-01T14:53:15;13.83;;;12.53;;
6955;SDS011;50345;51.136;16.886;2023-03-01T14:55:42;13.43;;;12.23;;
6955;SDS011;50345;51.136;16.886;2023-03-01T14:58:12;13.97;;;12.67;;
6955;SDS011;50345;51.136;16.886;2023-03-01T15:00:44;13.67;;;12.27;;
6955;SDS011;50345;51.136;16.886;2023-03-01T15:03:38;15.90;;;14.40;;
6955;SDS011;50345;51.136;16.886;2023-03-01T15:06:06;14.10;;;12.77;;
6955;SDS011;50345;51.136;16.886;2023-03-01T15:08:33;15.20;;;13.80;;
6955;SDS011;50345;51.136;16.886;2023-03-01T15:11:22;14.70;;;13.40;;
6955;SDS011;50345;51.136;16.886;2023-03-01T15:13:55;14.20;;;12.90;;
6955;SDS011;50345;51.136;16.886;2023-03-01T15:16:23;13.70;;;12.40;;
6955;SDS011;50345;51.136;16.886;2023-03-01T15:18:53;13.03;;;11.93;;
6955;SDS011;50345;51.136;16.886;2023-03-01T15:21:22;14.60;;;13.20;;
6955;SDS011;50345;51.136;16.886;2023-03-01T15:23:51;14.33;;;12.97;;
6955;SDS011;50345;51.136;16.886;2023-03-01T15:26:28;16.53;;;14.93;;
6955;SDS011;50345;51.136;16.886;2023-03-01T15:28:57;12.63;;;11.50;;
6955;SDS011;50345;51.136;16.886;2023-03-01T15:31:25;13.73;;;12.40;;
6955;SDS011;50345;51.136;16.886;2023-03-01T15:34:10;15.20;;;13.70;;
6955;SDS011;50345;51.136;16.886;2023-03-01T15:37:00;15.05;;;13.40;;
6955;SDS011;50345;51.136;16.886;2023-03-01T15:39:34;14.35;;;12.85;;
6955;SDS011;50345;51.136;16.886;2023-03-01T15:42:12;16.38;;;14.68;;
6955;SDS011;50345;51.136;16.886;2023-03-01T15:44:50;16.02;;;13.63;;
6955;SDS011;50345;51.136;16.886;2023-03-01T15:47:40;15.77;;;14.18;;
6955;SDS011;50345;51.136;16.886;2023-03-01T15:50:18;17.67;;;14.70;;
6955;SDS011;50345;51.136;16.886;2023-03-01T15:52:49;19.95;;;16.65;;
6955;SDS011;50345;51.136;16.886;2023-03-01T15:57:45;21.48;;;16.88;;
6955;SDS011;50345;51.136;16.886;2023-03-01T16:00:11;18.98;;;16.23;;
6955;SDS011;50345;51.136;16.886;2023-03-01T16:02:39;22.75;;;19.23;;
6955;SDS011;50345;51.136;16.886;2023-03-01T16:05:08;18.83;;;16.10;;
6955;SDS011;50345;51.136;16.886;2023-03-01T16:07:42;19.65;;;16.05;;
6955;SDS011;50345;51.136;16.886;2023-03-01T16:10:07;22.20;;;17.70;;
6955;SDS011;50345;51.136;16.886;2023-03-01T16:12:33;23.80;;;17.17;;
6955;SDS011;50345;51.136;16.886;2023-03-01T16:14:59;25.17;;;19.27;;
6955;SDS011;50345;51.136;16.886;2023-03-01T16:17:24;27.30;;;20.57;;
6955;SDS011;50345;51.136;16.886;2023-03-01T16:19:50;33.20;;;22.17;;
6955;SDS011;50345;51.136;16.886;2023-03-01T16:22:16;29.03;;;22.13;;
6955;SDS011;50345;51.136;16.886;2023-03-01T16:24:41;27.70;;;20.80;;
6955;SDS011;50345;51.136;16.886;2023-03-01T16:27:07;23.50;;;19.20;;
6955;SDS011;50345;51.136;16.886;2023-03-01T16:29:33;30.27;;;21.10;;
6955;SDS011;50345;51.136;16.886;2023-03-01T16:32:02;24.77;;;20.43;;
6955;SDS011;50345;51.136;16.886;2023-03-01T16:34:27;29.58;;;21.60;;